Startpagina
METAR-TAF:

METAR-TAF

Vliegvelden :

Wittmund, Duitsland

breedte: 53-33N, lengte: 007-40E, hoogte: 8 m

Actueel weer

Dit bericht is 1 uur en het 2 minuten geleden gemaakt, om 00:20 UTC
Wind 5 kt uit het oosten
Temperatuur 1°C
Vochtigheid 80%
Druk 1035 hPa
Zicht: 6000 m

METAR: ETNT 180020Z AUTO 09005KT 6000 // ////// 01/M02 Q1035 ///

Tijdstip: 02:22 (01:22 UTC)


TAF: ontbreekt

Waarnemingen en weersverwachtingen van meer dan 4000 vliegvelden (METAR en TAF).

De beschikbare stations zijn de gele en rode punten op de kaart.

Ga met uw muis naar het station om de naam te zien.

Klik dan om waarnemingen en weersverwachtingen te zien.

kaart wijzigen: klik op de groene knoppen met een zwart kruis om in te zoomen, op de groene knop met een streepje om uit te zoomen of op de groene pijlen voor aangrenzende kaarten.


METAR-TAF: